createdAt,value
2022-10-20T00:01:20.547Z,102156.88
2022-10-20T00:03:48.840Z,102151.47
2022-10-20T00:06:15.574Z,102143.41
2022-10-20T00:08:43.505Z,102145.31
2022-10-20T00:11:12.246Z,102148.13
2022-10-20T00:13:40.442Z,102136.19
2022-10-20T00:16:07.661Z,102127.44
2022-10-20T00:18:34.714Z,102124.81
2022-10-20T00:21:08.806Z,102119.69
2022-10-20T00:23:36.565Z,102109.38
2022-10-20T00:26:09.061Z,102114.28
2022-10-20T00:28:35.892Z,102108.97
2022-10-20T00:31:03.997Z,102111.41
2022-10-20T00:33:30.836Z,102103.31
2022-10-20T00:36:06.348Z,102102.94
2022-10-20T00:38:34.213Z,102093.59
2022-10-20T00:41:03.234Z,102082.94
2022-10-20T00:43:58.866Z,102084.38
2022-10-20T00:46:32.534Z,102081.97
2022-10-20T00:49:08.806Z,102081.88
2022-10-20T00:51:35.621Z,102068.59
2022-10-20T00:54:08.974Z,102070.94
2022-10-20T00:56:40.525Z,102069.50
2022-10-20T00:59:09.308Z,102063.34
2022-10-20T01:01:37.847Z,102062.59
2022-10-20T01:04:05.010Z,102060.25
2022-10-20T01:06:31.884Z,102052.16
2022-10-20T01:08:58.906Z,102055.81
2022-10-20T01:11:45.107Z,102045.22
2022-10-20T01:14:20.667Z,102042.28
2022-10-20T01:16:59.448Z,102028.44
2022-10-20T01:20:04.201Z,102033.31
2022-10-20T01:23:03.292Z,102038.63
2022-10-20T01:25:35.749Z,102042.88
2022-10-20T01:28:16.968Z,102034.28
2022-10-20T01:30:53.319Z,102024.31
2022-10-20T01:33:40.550Z,102017.66
2022-10-20T01:36:28.555Z,102005.69
2022-10-20T01:39:07.412Z,102010.97
2022-10-20T01:41:42.448Z,102002.63
2022-10-20T01:44:12.133Z,101994.69
2022-10-20T01:46:42.118Z,101983.78
2022-10-20T01:49:09.641Z,101982.94
2022-10-20T01:51:36.580Z,101976.00
2022-10-20T01:54:03.603Z,101973.94
2022-10-20T01:56:56.026Z,101967.78
2022-10-20T01:59:44.353Z,101969.19
2022-10-20T02:02:33.283Z,101968.91
2022-10-20T02:05:23.437Z,101967.41
2022-10-20T02:07:50.940Z,101957.00
2022-10-20T02:10:24.198Z,101949.91
2022-10-20T02:12:56.729Z,101952.63
2022-10-20T02:15:29.524Z,101939.50
2022-10-20T02:18:01.477Z,101938.50
2022-10-20T02:20:31.352Z,101930.97
2022-10-20T02:23:00.123Z,101937.00
2022-10-20T02:25:29.683Z,101941.50
2022-10-20T02:30:31.342Z,101928.03
2022-10-20T02:32:58.116Z,101934.88
2022-10-20T02:35:31.578Z,101931.63
2022-10-20T02:37:59.206Z,101935.22
2022-10-20T02:40:26.954Z,101934.97
2022-10-20T02:42:53.956Z,101935.34
2022-10-20T02:45:20.829Z,101934.94
2022-10-20T02:47:47.701Z,101924.41
2022-10-20T02:50:14.568Z,101920.72
2022-10-20T02:52:41.370Z,101909.03
2022-10-20T02:55:08.474Z,101911.44
2022-10-20T02:57:35.509Z,101902.78
2022-10-20T03:00:02.564Z,101898.25
2022-10-20T03:02:29.380Z,101893.59
2022-10-20T03:04:56.179Z,101888.59
2022-10-20T03:07:22.953Z,101880.47
2022-10-20T03:09:49.734Z,101891.72
2022-10-20T03:12:16.671Z,101885.13
2022-10-20T03:14:43.420Z,101879.28
2022-10-20T03:17:10.162Z,101874.41
2022-10-20T03:19:36.928Z,101868.09
2022-10-20T03:22:03.748Z,101863.06
2022-10-20T03:24:30.512Z,101868.22
2022-10-20T03:26:57.285Z,101881.06
2022-10-20T03:29:24.159Z,101871.41
2022-10-20T03:31:50.935Z,101866.19
2022-10-20T03:34:17.661Z,101861.03
2022-10-20T03:36:44.482Z,101857.31
2022-10-20T03:39:11.286Z,101847.16
2022-10-20T03:41:38.148Z,101845.31
2022-10-20T03:44:05.061Z,101830.88
2022-10-20T03:46:31.867Z,101827.53
2022-10-20T03:48:58.728Z,101807.31
2022-10-20T03:51:25.568Z,101799.47
2022-10-20T03:53:52.708Z,101797.88
2022-10-20T03:56:21.269Z,101801.66
2022-10-20T03:58:48.417Z,101788.81
2022-10-20T04:01:22.878Z,101788.06
2022-10-20T04:03:49.651Z,101780.84
2022-10-20T04:06:16.476Z,101772.28
2022-10-20T04:08:43.653Z,101765.53
2022-10-20T04:11:10.558Z,101767.25
2022-10-20T04:13:37.366Z,101769.56
2022-10-20T04:16:04.304Z,101765.94
2022-10-20T04:18:31.655Z,101765.88
2022-10-20T04:20:58.966Z,101766.44
2022-10-20T04:23:25.750Z,101770.50
2022-10-20T04:25:52.605Z,101757.63
2022-10-20T04:28:21.015Z,101751.72
2022-10-20T04:30:49.024Z,101753.84
2022-10-20T04:33:16.690Z,101739.88
2022-10-20T04:35:43.816Z,101755.25
2022-10-20T04:38:10.736Z,101744.91
2022-10-20T04:40:37.583Z,101751.91
2022-10-20T04:43:04.354Z,101748.00
2022-10-20T04:45:31.177Z,101742.19
2022-10-20T04:47:57.973Z,101748.78
2022-10-20T04:50:24.767Z,101742.06
2022-10-20T04:53:07.977Z,101728.56
2022-10-20T04:55:35.772Z,101731.31
2022-10-20T04:58:03.269Z,101726.34
2022-10-20T05:00:30.060Z,101722.19
2022-10-20T05:02:57.074Z,101721.66
2022-10-20T05:05:23.918Z,101719.03
2022-10-20T05:07:50.664Z,101713.69
2022-10-20T05:10:19.372Z,101708.31
2022-10-20T05:12:46.147Z,101714.38
2022-10-20T05:15:12.901Z,101704.19
2022-10-20T05:17:39.652Z,101705.25
2022-10-20T05:20:06.773Z,101705.41
2022-10-20T05:22:33.806Z,101701.97
2022-10-20T05:25:12.761Z,101693.00
2022-10-20T05:27:47.630Z,101688.41
2022-10-20T05:30:14.424Z,101687.84
2022-10-20T05:32:41.654Z,101686.66
2022-10-20T05:35:08.760Z,101675.84
2022-10-20T05:37:35.562Z,101679.00
2022-10-20T05:40:03.695Z,101677.00
2022-10-20T05:42:30.541Z,101664.97
2022-10-20T05:44:57.360Z,101660.50
2022-10-20T05:47:24.149Z,101647.19
2022-10-20T05:49:50.962Z,101654.41
2022-10-20T05:52:17.776Z,101638.66
2022-10-20T05:54:44.558Z,101648.53
2022-10-20T05:57:11.354Z,101642.59
2022-10-20T05:59:38.404Z,101644.41
2022-10-20T06:02:05.238Z,101637.69
2022-10-20T06:04:32.476Z,101631.78
2022-10-20T06:06:59.277Z,101630.94
2022-10-20T06:09:26.565Z,101626.50
2022-10-20T06:11:53.445Z,101616.69
2022-10-20T06:14:22.414Z,101620.84
2022-10-20T06:16:53.581Z,101626.34
2022-10-20T06:19:20.833Z,101621.97
2022-10-20T06:21:49.322Z,101617.31
2022-10-20T06:24:17.100Z,101618.09
2022-10-20T06:26:45.024Z,101611.88
2022-10-20T06:29:15.233Z,101605.72
2022-10-20T06:31:50.267Z,101594.53
2022-10-20T06:34:19.848Z,101583.44
2022-10-20T06:36:47.285Z,101577.34
2022-10-20T06:39:17.507Z,101570.31
2022-10-20T06:41:48.522Z,101568.13
2022-10-20T06:44:20.657Z,101553.41
2022-10-20T06:46:47.807Z,101544.47
2022-10-20T06:49:15.157Z,101556.50
2022-10-20T06:51:41.974Z,101549.41
2022-10-20T06:54:09.457Z,101558.50
2022-10-20T06:56:37.467Z,101550.97
2022-10-20T06:59:04.650Z,101537.75
2022-10-20T07:01:33.538Z,101536.03
2022-10-20T07:04:03.617Z,101547.91
2022-10-20T07:06:33.703Z,101560.50
2022-10-20T07:09:04.059Z,101563.13
2022-10-20T07:11:31.878Z,101577.13
2022-10-20T07:14:00.029Z,101572.09
2022-10-20T07:16:30.539Z,101564.81
2022-10-20T07:18:57.483Z,101567.16
2022-10-20T07:21:30.822Z,101558.28
2022-10-20T07:24:01.988Z,101549.97
2022-10-20T07:26:31.739Z,101554.13
2022-10-20T07:29:00.826Z,101542.94
2022-10-20T07:31:32.085Z,101547.41
2022-10-20T07:34:13.551Z,101546.84
2022-10-20T07:36:47.493Z,101552.44
2022-10-20T07:39:14.366Z,101552.91
2022-10-20T07:41:44.045Z,101552.91
2022-10-20T07:44:11.260Z,101565.50
2022-10-20T07:46:38.057Z,101564.13
2022-10-20T07:49:39.182Z,101557.84
2022-10-20T07:51:51.591Z,101559.22
2022-10-20T07:54:18.472Z,101560.88
2022-10-20T07:56:46.304Z,101558.31
2022-10-20T07:59:13.599Z,101547.06
2022-10-20T08:01:40.910Z,101542.13
2022-10-20T08:04:07.934Z,101543.50
2022-10-20T08:06:34.812Z,101536.38
2022-10-20T08:09:02.040Z,101527.19
2022-10-20T08:11:29.102Z,101525.75
2022-10-20T08:13:55.989Z,101541.66
2022-10-20T08:19:24.202Z,101519.47
2022-10-20T08:21:50.965Z,101507.00
2022-10-20T08:24:17.835Z,101496.44
2022-10-20T08:26:44.709Z,101485.03
2022-10-20T08:29:12.411Z,101485.00
2022-10-20T08:31:39.913Z,101485.28
2022-10-20T08:34:07.141Z,101507.00
2022-10-20T08:36:37.375Z,101513.28
2022-10-20T08:39:06.236Z,101509.47
2022-10-20T08:41:55.212Z,101509.06
2022-10-20T08:44:34.556Z,101488.88
2022-10-20T08:47:16.439Z,101488.59
2022-10-20T08:49:45.800Z,101478.50
2022-10-20T08:52:17.387Z,101462.84
2022-10-20T08:54:44.498Z,101471.25
2022-10-20T08:57:22.313Z,101458.22
2022-10-20T08:59:52.449Z,101453.94
2022-10-20T09:02:19.565Z,101467.09
2022-10-20T09:04:51.887Z,101472.84
2022-10-20T09:07:45.083Z,101453.78
2022-10-20T09:10:26.428Z,101461.34
2022-10-20T09:12:53.432Z,101453.94
2022-10-20T09:15:21.463Z,101448.38
2022-10-20T09:17:56.778Z,101438.75
2022-10-20T09:20:26.137Z,101442.63
2022-10-20T09:22:53.012Z,101446.81
2022-10-20T09:25:25.240Z,101445.97
2022-10-20T09:27:52.231Z,101444.81
2022-10-20T09:30:34.503Z,101445.00
2022-10-20T09:33:20.284Z,101433.75
2022-10-20T09:35:48.910Z,101413.63
2022-10-20T09:38:19.762Z,101401.00
2022-10-20T09:40:58.201Z,101406.84
2022-10-20T09:43:27.244Z,101403.59
2022-10-20T09:45:58.582Z,101392.28
2022-10-20T09:48:29.427Z,101409.06
2022-10-20T09:50:58.806Z,101408.16
2022-10-20T09:53:34.976Z,101388.81
2022-10-20T09:56:02.120Z,101391.34
2022-10-20T09:58:42.152Z,101401.31
2022-10-20T10:01:12.401Z,101395.59
2022-10-20T10:03:52.848Z,101376.84
2022-10-20T10:06:38.012Z,101377.56
2022-10-20T10:09:31.912Z,101374.72
2022-10-20T10:12:01.722Z,101371.94
2022-10-20T10:14:29.312Z,101369.53
2022-10-20T10:16:56.626Z,101369.03
2022-10-20T10:19:28.853Z,101362.09
2022-10-20T10:21:58.496Z,101357.63
2022-10-20T10:24:48.379Z,101346.41
2022-10-20T10:27:28.545Z,101346.28
2022-10-20T10:30:16.343Z,101335.75
2022-10-20T10:32:47.739Z,101322.25
2022-10-20T10:35:26.618Z,101318.66
2022-10-20T10:37:54.572Z,101303.84
2022-10-20T10:41:09.002Z,101295.31
2022-10-20T10:43:48.783Z,101299.00
2022-10-20T10:46:28.545Z,101293.53
2022-10-20T10:48:58.288Z,101307.94
2022-10-20T10:51:40.116Z,101294.53
2022-10-20T10:54:30.311Z,101295.41
2022-10-20T10:57:03.531Z,101288.53
2022-10-20T10:59:35.894Z,101286.53
2022-10-20T11:02:31.829Z,101287.59
2022-10-20T11:05:20.421Z,101288.75
2022-10-20T11:08:01.594Z,101284.47
2022-10-20T11:10:45.378Z,101273.00
2022-10-20T11:13:40.102Z,101273.78
2022-10-20T11:16:09.741Z,101258.56
2022-10-20T11:19:11.220Z,101267.97
2022-10-20T11:21:53.326Z,101261.34
2022-10-20T11:24:36.240Z,101260.66
2022-10-20T11:27:16.823Z,101263.69
2022-10-20T11:29:57.626Z,101248.88
2022-10-20T11:32:45.725Z,101250.56
2022-10-20T11:35:45.298Z,101251.81
2022-10-20T11:38:25.673Z,101249.38
2022-10-20T11:41:08.393Z,101251.75
2022-10-20T11:43:46.263Z,101247.44
2022-10-20T11:46:19.903Z,101257.13
2022-10-20T11:48:51.126Z,101246.09
2022-10-20T11:51:30.096Z,101252.53
2022-10-20T11:53:59.822Z,101250.09
2022-10-20T11:56:49.110Z,101243.97
2022-10-20T11:59:25.101Z,101234.09
2022-10-20T12:02:29.521Z,101233.88
2022-10-20T12:05:19.600Z,101225.50
2022-10-20T12:08:24.820Z,101225.19
2022-10-20T12:10:51.338Z,101221.66
2022-10-20T12:13:47.401Z,101214.13
2022-10-20T12:16:51.964Z,101212.03
2022-10-20T12:19:22.870Z,101202.91
2022-10-20T12:22:05.573Z,101206.47
2022-10-20T12:24:44.253Z,101209.63
2022-10-20T12:27:11.063Z,101217.66
2022-10-20T12:29:37.864Z,101201.06
2022-10-20T12:32:29.025Z,101201.34
2022-10-20T12:35:16.662Z,101206.69
2022-10-20T12:37:55.844Z,101204.63
2022-10-20T12:40:31.063Z,101203.81
2022-10-20T12:42:59.141Z,101191.09
2022-10-20T12:45:36.055Z,101200.59
2022-10-20T12:48:04.422Z,101190.13
2022-10-20T12:50:42.140Z,101196.44
2022-10-20T12:53:18.150Z,101197.69
2022-10-20T12:55:53.762Z,101204.00
2022-10-20T12:58:20.550Z,101208.25
2022-10-20T13:00:47.333Z,101205.75
2022-10-20T13:03:32.453Z,101206.28
2022-10-20T13:06:00.363Z,101204.13
2022-10-20T13:08:33.570Z,101210.66
2022-10-20T13:11:38.197Z,101200.72
2022-10-20T13:14:27.061Z,101191.66
2022-10-20T13:17:15.806Z,101194.53
2022-10-20T13:20:01.344Z,101182.75
2022-10-20T13:22:51.273Z,101186.59
2022-10-20T13:25:53.382Z,101192.91
2022-10-20T13:28:24.170Z,101193.03
2022-10-20T13:30:59.333Z,101183.19
2022-10-20T13:34:03.339Z,101174.81
2022-10-20T13:36:50.224Z,101171.19
2022-10-20T13:39:52.040Z,101168.09
2022-10-20T13:42:50.641Z,101165.84
2022-10-20T13:45:35.757Z,101160.09
2022-10-20T13:48:31.595Z,101149.13
2022-10-20T13:51:18.372Z,101155.75
2022-10-20T13:53:51.278Z,101153.84
2022-10-20T13:56:18.116Z,101152.72
2022-10-20T13:59:04.524Z,101148.25
2022-10-20T14:01:35.174Z,101137.94
2022-10-20T14:04:02.207Z,101145.72
2022-10-20T14:06:37.617Z,101152.56
2022-10-20T14:09:18.287Z,101145.53
2022-10-20T14:11:53.221Z,101148.00
2022-10-20T14:14:26.169Z,101152.19
2022-10-20T14:17:05.955Z,101152.44
2022-10-20T14:19:33.842Z,101141.84
2022-10-20T14:22:15.628Z,101137.19
2022-10-20T14:24:48.391Z,101134.94
2022-10-20T14:27:33.412Z,101126.69
2022-10-20T14:30:03.031Z,101128.03
2022-10-20T14:32:32.053Z,101130.94
2022-10-20T14:35:01.478Z,101134.03
2022-10-20T14:37:35.658Z,101126.66
2022-10-20T14:40:06.275Z,101116.53
2022-10-20T14:42:33.741Z,101107.78
2022-10-20T14:45:03.111Z,101102.34
2022-10-20T14:47:39.145Z,101090.97
2022-10-20T14:50:06.764Z,101094.84
2022-10-20T14:52:38.744Z,101088.63
2022-10-20T14:55:35.210Z,101080.22
2022-10-20T14:58:02.700Z,101091.88
2022-10-20T15:00:36.006Z,101099.22
2022-10-20T15:03:07.148Z,101088.09
2022-10-20T15:05:45.242Z,101074.56
2022-10-20T15:08:24.847Z,101077.63
2022-10-20T15:10:52.161Z,101068.63
2022-10-20T15:13:25.038Z,101061.88
2022-10-20T15:15:55.099Z,101070.63
2022-10-20T15:18:24.023Z,101060.91
2022-10-20T15:20:52.680Z,101061.66
2022-10-20T15:23:26.881Z,101056.00
2022-10-20T15:26:09.534Z,101050.06
2022-10-20T15:28:44.199Z,101051.19
2022-10-20T15:31:14.101Z,101047.94
2022-10-20T15:33:41.640Z,101042.13
2022-10-20T15:36:32.909Z,101027.84
2022-10-20T15:39:00.777Z,101027.03
2022-10-20T15:41:33.338Z,101017.41
2022-10-20T15:44:14.275Z,101020.41
2022-10-20T15:46:46.859Z,101016.44
2022-10-20T15:49:14.200Z,101029.16
2022-10-20T15:51:43.956Z,101017.59
2022-10-20T15:54:16.107Z,101027.59
2022-10-20T15:56:43.735Z,101023.44
2022-10-20T15:59:10.756Z,101012.47
2022-10-20T16:01:38.235Z,101008.56
2022-10-20T16:04:18.930Z,101009.78
2022-10-20T16:06:45.935Z,101005.19
2022-10-20T16:09:15.778Z,101015.88
2022-10-20T16:11:43.603Z,101000.47
2022-10-20T16:14:10.718Z,101003.31
2022-10-20T16:16:37.557Z,100996.78
2022-10-20T16:19:05.145Z,101009.78
2022-10-20T16:21:33.242Z,101007.78
2022-10-20T16:24:01.122Z,100989.75
2022-10-20T16:26:28.267Z,100998.91
2022-10-20T16:28:55.118Z,100998.75
2022-10-20T16:31:22.002Z,101003.03
2022-10-20T16:33:48.943Z,101002.38
2022-10-20T16:36:21.698Z,101010.78
2022-10-20T16:38:48.601Z,100999.41
2022-10-20T16:41:16.105Z,100988.72
2022-10-20T16:43:45.308Z,100987.59
2022-10-20T16:46:14.558Z,100992.28
2022-10-20T16:48:43.838Z,100978.31
2022-10-20T16:51:15.156Z,100981.19
2022-10-20T16:53:42.437Z,100988.50
2022-10-20T16:56:09.455Z,100990.06
2022-10-20T16:58:36.341Z,100986.22
2022-10-20T17:01:06.570Z,100980.03
2022-10-20T17:03:33.918Z,100983.31
2022-10-20T17:06:04.198Z,100985.44
2022-10-20T17:08:32.075Z,100986.00
2022-10-20T17:11:00.981Z,100986.34
2022-10-20T17:13:29.428Z,100978.13
2022-10-20T17:15:56.774Z,100986.88
2022-10-20T17:18:24.119Z,100983.22
2022-10-20T17:20:55.098Z,100980.88
2022-10-20T17:23:23.024Z,100986.75
2022-10-20T17:25:51.509Z,100981.56
2022-10-20T17:28:18.350Z,100985.22
2022-10-20T17:30:47.058Z,100980.22
2022-10-20T17:33:14.172Z,100977.06
2022-10-20T17:35:41.143Z,100983.72
2022-10-20T17:38:08.025Z,100976.25
2022-10-20T17:40:38.304Z,100981.16
2022-10-20T17:43:05.475Z,100973.28
2022-10-20T17:45:34.960Z,100974.91
2022-10-20T17:48:04.982Z,100975.59
2022-10-20T17:50:31.866Z,100980.31
2022-10-20T17:53:02.241Z,100982.66
2022-10-20T17:55:29.730Z,100981.03
2022-10-20T17:57:56.648Z,100976.56
2022-10-20T18:00:37.755Z,100986.81
2022-10-20T18:03:10.402Z,100981.16
2022-10-20T18:05:37.242Z,100976.91
2022-10-20T18:08:04.150Z,100975.75
2022-10-20T18:10:30.961Z,100976.84
2022-10-20T18:12:58.285Z,100977.63
2022-10-20T18:15:25.116Z,100975.13
2022-10-20T18:17:51.925Z,100982.75
2022-10-20T18:20:18.814Z,100978.97
2022-10-20T18:22:45.609Z,100984.16
2022-10-20T18:25:12.646Z,100976.06
2022-10-20T18:27:39.543Z,100983.34
2022-10-20T18:30:08.494Z,100978.66
2022-10-20T18:32:36.582Z,100978.94
2022-10-20T18:35:03.875Z,100978.94
2022-10-20T18:37:30.750Z,100975.31
2022-10-20T18:39:57.563Z,100973.88
2022-10-20T18:42:24.486Z,100966.81
2022-10-20T18:44:51.304Z,100967.06
2022-10-20T18:47:18.171Z,100967.69
2022-10-20T18:49:45.034Z,100962.00
2022-10-20T18:52:12.183Z,100962.53
2022-10-20T18:54:39.587Z,100956.66
2022-10-20T18:57:06.494Z,100948.25
2022-10-20T18:59:33.324Z,100947.72
2022-10-20T19:02:00.107Z,100941.53
2022-10-20T19:04:27.031Z,100932.06
2022-10-20T19:06:53.969Z,100934.50
2022-10-20T19:09:21.693Z,100927.41
2022-10-20T19:14:17.572Z,100930.84
2022-10-20T19:16:47.029Z,100937.28
2022-10-20T19:19:14.041Z,100927.56
2022-10-20T19:21:41.092Z,100928.75
2022-10-20T19:24:14.596Z,100925.91
2022-10-20T19:26:52.467Z,100922.31
2022-10-20T19:29:29.703Z,100926.28
2022-10-20T19:31:59.534Z,100918.78
2022-10-20T19:34:30.563Z,100917.53
2022-10-20T19:36:58.295Z,100927.13
2022-10-20T19:39:32.578Z,100916.63
2022-10-20T19:42:01.243Z,100921.28
2022-10-20T19:44:28.618Z,100903.97
2022-10-20T19:46:56.601Z,100903.94
2022-10-20T19:49:24.351Z,100899.50
2022-10-20T19:51:51.728Z,100891.09
2022-10-20T19:54:18.942Z,100894.97
2022-10-20T19:56:45.814Z,100890.84
2022-10-20T19:59:12.733Z,100893.69
2022-10-20T20:01:39.777Z,100901.22
2022-10-20T20:04:07.003Z,100900.78
2022-10-20T20:06:34.782Z,100904.69
2022-10-20T20:09:05.177Z,100898.38
2022-10-20T20:11:32.363Z,100902.44
2022-10-20T20:14:08.132Z,100903.22
2022-10-20T20:16:35.301Z,100897.38
2022-10-20T20:19:02.487Z,100902.50
2022-10-20T20:21:30.537Z,100893.31
2022-10-20T20:24:02.198Z,100892.25
2022-10-20T20:26:31.282Z,100892.75
2022-10-20T20:28:59.071Z,100892.97
2022-10-20T20:31:27.504Z,100900.28
2022-10-20T20:33:56.639Z,100897.75
2022-10-20T20:36:26.187Z,100897.41
2022-10-20T20:38:55.122Z,100881.03
2022-10-20T20:41:26.024Z,100879.44
2022-10-20T20:43:52.856Z,100878.50
2022-10-20T20:46:22.687Z,100875.31
2022-10-20T20:48:50.601Z,100883.91
2022-10-20T20:51:17.594Z,100880.22
2022-10-20T20:53:44.413Z,100875.78
2022-10-20T20:56:13.755Z,100879.97
2022-10-20T20:58:41.964Z,100882.31
2022-10-20T21:01:13.396Z,100872.97
2022-10-20T21:03:40.293Z,100870.06
2022-10-20T21:06:09.243Z,100884.25
2022-10-20T21:08:38.314Z,100884.94
2022-10-20T21:11:13.354Z,100880.19
2022-10-20T21:13:41.679Z,100864.88
2022-10-20T21:16:14.497Z,100864.25
2022-10-20T21:18:43.818Z,100868.03
2022-10-20T21:21:13.689Z,100856.66
2022-10-20T21:23:41.040Z,100869.09
2022-10-20T21:26:09.764Z,100881.56
2022-10-20T21:28:37.036Z,100880.53
2022-10-20T21:31:08.731Z,100876.88
2022-10-20T21:33:36.975Z,100868.91
2022-10-20T21:36:06.595Z,100883.13
2022-10-20T21:38:35.982Z,100882.63
2022-10-20T21:41:08.918Z,100885.78
2022-10-20T21:43:37.706Z,100883.03
2022-10-20T21:46:10.058Z,100887.59
2022-10-20T21:51:19.892Z,100885.88
2022-10-20T21:53:47.128Z,100886.03
2022-10-20T21:56:14.754Z,100877.00
2022-10-20T21:58:41.702Z,100884.13
2022-10-20T22:01:26.274Z,100891.84
2022-10-20T22:03:54.236Z,100889.31
2022-10-20T22:06:24.222Z,100890.88
2022-10-20T22:08:54.463Z,100881.91
2022-10-20T22:11:26.951Z,100872.75
2022-10-20T22:13:54.473Z,100865.88
2022-10-20T22:16:24.105Z,100875.34
2022-10-20T22:19:01.741Z,100869.50
2022-10-20T22:21:29.629Z,100869.88
2022-10-20T22:23:58.515Z,100861.41
2022-10-20T22:26:26.991Z,100862.88
2022-10-20T22:28:54.555Z,100865.72
2022-10-20T22:31:23.132Z,100861.25
2022-10-20T22:33:55.404Z,100864.06
2022-10-20T22:36:23.330Z,100863.13
2022-10-20T22:38:50.089Z,100864.94
2022-10-20T22:41:17.154Z,100859.63
2022-10-20T22:43:43.966Z,100870.59
2022-10-20T22:46:10.789Z,100861.56
2022-10-20T22:48:37.629Z,100859.69
2022-10-20T22:51:06.204Z,100860.03
2022-10-20T22:53:33.010Z,100852.53
2022-10-20T22:56:12.041Z,100862.00
2022-10-20T22:58:39.000Z,100843.28
2022-10-20T23:01:10.376Z,100847.59
2022-10-20T23:03:38.138Z,100849.38
2022-10-20T23:06:14.331Z,100853.63
2022-10-20T23:08:43.593Z,100854.72
2022-10-20T23:11:11.330Z,100843.28
2022-10-20T23:13:38.189Z,100838.56
2022-10-20T23:16:05.262Z,100845.56
2022-10-20T23:18:32.128Z,100862.75
2022-10-20T23:20:58.898Z,100856.41
2022-10-20T23:23:26.212Z,100845.31
2022-10-20T23:25:53.312Z,100843.41
2022-10-20T23:28:20.406Z,100854.16
2022-10-20T23:30:47.739Z,100858.16
2022-10-20T23:33:14.600Z,100856.75
2022-10-20T23:35:41.338Z,100849.06
2022-10-20T23:38:09.614Z,100852.41
2022-10-20T23:40:37.878Z,100845.44
2022-10-20T23:43:04.926Z,100848.81
2022-10-20T23:45:34.117Z,100843.41
2022-10-20T23:48:03.840Z,100834.84
2022-10-20T23:50:30.659Z,100830.31
2022-10-20T23:52:57.426Z,100829.41
2022-10-20T23:55:24.189Z,100829.19
2022-10-20T23:57:51.272Z,100828.00
